Time;durP1;ratioP1;P1;durP2;ratioP2;P2;SDS_P1;SDS_P2;PMS_P1;PMS_P2;Temp;Humidity;BMP_temperature;BMP_pressure;BME280_temperature;BME280_humidity;BME280_pressure;Samples;Min_cycle;Max_cycle;Signal;HPM_P1;HPM_P2
2022/06/26 00:01:02;;;;;;;6.35;4.53;;;20.20;75.00;;;;;;5042796;28;20042;-68
2022/06/26 00:03:28;;;;;;;4.55;4.05;;;20.30;75.00;;;;;;5048900;28;20082;-68
2022/06/26 00:05:55;;;;;;;6.97;4.15;;;20.30;74.90;;;;;;5047481;28;20024;-69
2022/06/26 00:08:21;;;;;;;4.57;4.18;;;20.30;74.90;;;;;;5048667;28;20100;-68
2022/06/26 00:10:47;;;;;;;6.07;4.40;;;20.30;74.90;;;;;;5048751;28;20024;-67
2022/06/26 00:13:13;;;;;;;5.03;4.13;;;20.30;75.10;;;;;;5047522;28;20024;-68
2022/06/26 00:15:39;;;;;;;5.72;4.30;;;20.20;75.20;;;;;;5049003;28;20100;-67
2022/06/26 00:18:04;;;;;;;4.45;4.05;;;20.20;75.30;;;;;;5048024;28;20025;-68
2022/06/26 00:20:30;;;;;;;6.50;4.80;;;20.10;75.60;;;;;;5049055;28;20033;-68
2022/06/26 00:22:56;;;;;;;4.65;4.20;;;20.10;75.90;;;;;;5048345;28;20082;-67
2022/06/26 00:25:22;;;;;;;5.88;4.10;;;20.10;75.90;;;;;;5047979;28;20113;-67
2022/06/26 00:27:47;;;;;;;4.40;3.97;;;20.10;75.80;;;;;;5047611;28;20027;-67
2022/06/26 00:30:13;;;;;;;5.43;4.50;;;20.20;75.80;;;;;;5049223;28;20516;-67
2022/06/26 00:32:39;;;;;;;4.28;3.88;;;20.10;75.80;;;;;;5045649;28;20022;-68
2022/06/26 00:35:06;;;;;;;5.72;4.03;;;20.20;75.90;;;;;;5048822;28;20029;-67
2022/06/26 00:37:31;;;;;;;5.50;4.35;;;20.20;75.80;;;;;;5047789;28;20021;-68
2022/06/26 00:39:57;;;;;;;5.05;4.55;;;20.30;75.80;;;;;;5042551;28;20490;-68
2022/06/26 00:42:22;;;;;;;4.50;4.10;;;20.20;75.60;;;;;;5048242;28;20091;-68
2022/06/26 00:44:52;;;;;;;5.10;4.10;;;20.30;75.70;;;;;;5050871;28;20033;-67
2022/06/26 00:47:18;;;;;;;6.00;4.38;;;20.20;75.70;;;;;;5050557;28;20025;-67
2022/06/26 00:49:44;;;;;;;4.80;4.10;;;20.20;75.90;;;;;;5051823;28;20403;-67
2022/06/26 00:52:11;;;;;;;3.90;3.50;;;20.20;76.00;;;;;;5048236;28;20472;-67
2022/06/26 00:54:37;;;;;;;4.38;3.70;;;20.20;75.90;;;;;;5043427;28;20028;-68
2022/06/26 00:57:03;;;;;;;4.97;4.25;;;20.20;75.80;;;;;;5037305;28;20021;-68
2022/06/26 00:59:30;;;;;;;3.88;3.47;;;20.30;75.80;;;;;;5048711;28;20496;-68
2022/06/26 01:01:56;;;;;;;3.53;3.10;;;20.30;75.90;;;;;;5051683;28;20511;-68
2022/06/26 01:04:21;;;;;;;4.38;3.40;;;20.30;76.00;;;;;;5046617;28;20025;-68
2022/06/26 01:06:49;;;;;;;4.30;3.35;;;20.20;76.10;;;;;;5050851;28;20061;-68
2022/06/26 01:09:14;;;;;;;3.70;3.20;;;20.30;76.10;;;;;;5065115;28;20021;-68
2022/06/26 01:11:42;;;;;;;4.68;3.20;;;20.30;76.10;;;;;;5052407;28;20029;-68
2022/06/26 01:14:09;;;;;;;4.07;2.85;;;20.30;76.10;;;;;;5046247;28;20411;-68
2022/06/26 01:16:35;;;;;;;3.40;2.92;;;20.20;76.20;;;;;;5051948;28;20104;-68
2022/06/26 01:19:04;;;;;;;3.75;3.13;;;20.20;76.20;;;;;;5047435;28;20403;-68
2022/06/26 01:21:30;;;;;;;3.40;3.10;;;20.20;76.10;;;;;;5052024;28;20025;-68
2022/06/26 01:23:55;;;;;;;4.18;3.40;;;20.20;76.20;;;;;;5050958;28;20028;-68
2022/06/26 01:26:22;;;;;;;4.38;3.50;;;20.20;76.20;;;;;;5038673;28;20519;-68
2022/06/26 01:28:48;;;;;;;4.82;4.18;;;20.30;76.20;;;;;;5045775;28;20020;-67
2022/06/26 01:31:13;;;;;;;3.97;3.55;;;20.20;76.20;;;;;;5051494;28;20583;-67
2022/06/26 01:33:39;;;;;;;4.13;3.72;;;20.30;76.30;;;;;;5050834;28;20033;-67
2022/06/26 01:36:06;;;;;;;5.47;3.75;;;20.20;76.40;;;;;;5041978;28;20090;-67
2022/06/26 01:38:31;;;;;;;5.00;4.20;;;20.20;76.40;;;;;;5041997;28;20116;-67
2022/06/26 01:40:57;;;;;;;5.20;4.45;;;20.20;76.60;;;;;;5043361;28;20495;-67
2022/06/26 01:43:25;;;;;;;6.68;5.15;;;20.20;76.70;;;;;;5050646;28;20062;-67
2022/06/26 01:45:54;;;;;;;5.50;4.70;;;20.00;77.00;;;;;;5049725;28;20032;-67
2022/06/26 01:48:20;;;;;;;5.20;4.70;;;20.00;77.20;;;;;;5049582;28;20159;-67
2022/06/26 01:50:47;;;;;;;5.22;3.97;;;20.00;77.50;;;;;;5050632;28;20078;-67
2022/06/26 01:53:14;;;;;;;4.80;4.30;;;20.00;77.60;;;;;;5046898;28;20028;-66
2022/06/26 01:55:40;;;;;;;6.15;4.13;;;19.90;77.70;;;;;;5050096;28;20511;-66
2022/06/26 01:58:06;;;;;;;4.18;3.05;;;20.00;77.80;;;;;;5046945;28;20515;-66
2022/06/26 02:00:35;;;;;;;4.20;3.80;;;20.00;77.80;;;;;;5044960;28;20036;-66
2022/06/26 02:03:01;;;;;;;4.28;3.70;;;19.90;78.00;;;;;;5041496;28;20031;-67
2022/06/26 02:05:27;;;;;;;4.65;3.55;;;19.90;78.00;;;;;;5051024;28;20108;-68
2022/06/26 02:07:53;;;;;;;5.22;3.58;;;19.90;78.10;;;;;;5050407;28;20032;-67
2022/06/26 02:15:49;;;;;;;4.13;3.55;;;19.80;78.20;;;;;;5044140;28;20071;-67
2022/06/26 02:18:15;;;;;;;3.42;3.13;;;19.80;78.30;;;;;;5050378;28;20480;-68
2022/06/26 02:20:41;;;;;;;5.22;3.40;;;19.70;78.30;;;;;;5050117;28;20033;-67
2022/06/26 02:23:07;;;;;;;3.95;3.55;;;19.70;78.20;;;;;;5050310;28;20025;-67
2022/06/26 02:25:32;;;;;;;4.03;3.65;;;19.70;78.20;;;;;;5035190;28;20034;-67
2022/06/26 02:27:58;;;;;;;3.63;2.90;;;19.70;78.20;;;;;;5049686;28;20652;-67
2022/06/26 02:30:24;;;;;;;5.47;4.97;;;19.70;78.20;;;;;;5049039;28;20387;-67
2022/06/26 02:32:49;;;;;;;5.10;4.60;;;19.70;78.30;;;;;;5050547;28;20100;-68
2022/06/26 02:35:15;;;;;;;3.78;3.47;;;19.60;78.40;;;;;;5049943;28;20049;-67
2022/06/26 02:37:40;;;;;;;4.60;3.92;;;19.60;78.30;;;;;;5050450;28;20025;-66
2022/06/26 02:40:07;;;;;;;4.38;3.80;;;19.60;78.40;;;;;;5048425;28;20501;-67
2022/06/26 02:42:32;;;;;;;3.97;3.58;;;19.50;78.40;;;;;;5050080;28;20103;-66
2022/06/26 02:44:58;;;;;;;4.95;4.45;;;19.60;78.40;;;;;;5049800;28;20116;-67
2022/06/26 02:47:23;;;;;;;4.63;3.33;;;19.50;78.60;;;;;;5049891;28;20052;-67
2022/06/26 02:49:49;;;;;;;5.15;4.18;;;19.50;78.60;;;;;;5048181;28;20021;-66
2022/06/26 02:52:14;;;;;;;4.38;3.92;;;19.40;78.90;;;;;;5047689;28;20017;-67
2022/06/26 02:54:40;;;;;;;4.47;3.58;;;19.40;78.80;;;;;;5047533;28;20028;-67
2022/06/26 02:57:05;;;;;;;5.32;4.60;;;19.40;78.80;;;;;;5050188;28;20057;-67
2022/06/26 02:59:31;;;;;;;4.35;3.95;;;19.30;79.60;;;;;;5048553;28;20041;-67
2022/06/26 03:01:57;;;;;;;4.88;4.38;;;19.30;79.20;;;;;;5050056;28;20086;-66
2022/06/26 03:04:23;;;;;;;5.20;4.28;;;19.20;79.30;;;;;;5049254;28;20449;-67
2022/06/26 03:06:49;;;;;;;4.38;3.97;;;19.20;79.50;;;;;;5047953;28;20029;-66
2022/06/26 03:09:15;;;;;;;3.50;3.17;;;19.20;79.50;;;;;;5043456;28;20166;-66
2022/06/26 03:11:41;;;;;;;4.93;4.25;;;19.20;79.40;;;;;;5047421;28;20036;-66
2022/06/26 03:14:07;;;;;;;4.18;3.70;;;19.20;79.50;;;;;;5049535;28;20068;-67
2022/06/26 03:16:33;;;;;;;5.18;4.65;;;19.20;79.50;;;;;;5049912;28;20622;-68
2022/06/26 03:18:58;;;;;;;4.53;4.13;;;19.20;79.70;;;;;;5029869;28;20017;-69
2022/06/26 03:21:24;;;;;;;7.35;6.30;;;19.20;79.60;;;;;;5047027;28;20029;-68
2022/06/26 03:24:02;;;;;;;6.65;5.80;;;19.20;79.80;;;;;;5049448;28;20032;-69
2022/06/26 03:26:32;;;;;;;5.20;4.47;;;19.10;80.10;;;;;;5044893;28;20108;-68
2022/06/26 03:28:59;;;;;;;4.47;4.07;;;19.10;80.00;;;;;;5047104;28;20487;-67
2022/06/26 03:31:25;;;;;;;6.38;5.70;;;19.10;79.90;;;;;;5048382;28;20434;-68
2022/06/26 03:33:51;;;;;;;6.50;5.22;;;19.10;80.10;;;;;;5047971;28;20391;-68
2022/06/26 03:36:17;;;;;;;5.45;4.95;;;19.10;80.20;;;;;;5048203;28;20029;-67
2022/06/26 03:38:42;;;;;;;5.82;5.22;;;19.10;80.20;;;;;;5049421;28;20102;-67
2022/06/26 03:41:08;;;;;;;6.53;5.32;;;19.10;80.20;;;;;;5045860;28;20029;-67
2022/06/26 03:43:34;;;;;;;5.68;5.13;;;19.00;80.20;;;;;;5049255;28;20100;-68
2022/06/26 03:46:00;;;;;;;6.18;5.57;;;19.10;80.20;;;;;;5048755;28;20029;-67
2022/06/26 03:48:25;;;;;;;5.05;4.47;;;19.10;80.20;;;;;;5047505;28;20021;-67
2022/06/26 03:50:51;;;;;;;7.03;5.20;;;19.10;80.20;;;;;;5047079;28;20037;-67
2022/06/26 03:53:17;;;;;;;6.03;5.20;;;19.10;80.20;;;;;;5048913;28;20150;-68
2022/06/26 03:55:43;;;;;;;5.75;4.95;;;19.10;80.10;;;;;;5048773;28;20033;-68
2022/06/26 03:58:08;;;;;;;6.25;5.63;;;19.20;79.90;;;;;;5044573;28;20031;-67
2022/06/26 04:00:34;;;;;;;8.00;6.22;;;19.20;79.90;;;;;;5048560;28;20110;-67
2022/06/26 04:03:04;;;;;;;7.10;6.35;;;19.10;79.80;;;;;;5048508;28;20516;-67
2022/06/26 04:05:31;;;;;;;6.95;5.85;;;19.10;79.90;;;;;;5041511;28;20037;-67
2022/06/26 04:07:57;;;;;;;7.40;6.60;;;19.20;79.90;;;;;;5049520;28;20021;-67
2022/06/26 04:10:23;;;;;;;8.45;6.65;;;19.20;79.80;;;;;;5047985;28;20017;-67
2022/06/26 04:12:48;;;;;;;8.40;6.28;;;19.20;79.80;;;;;;5047970;28;20112;-66
2022/06/26 04:15:14;;;;;;;9.75;8.57;;;19.20;79.80;;;;;;5047503;28;20036;-66
2022/06/26 04:17:39;;;;;;;7.97;7.18;;;19.10;79.60;;;;;;5049839;28;20025;-67
2022/06/26 04:20:06;;;;;;;8.77;6.97;;;19.00;79.70;;;;;;5049665;28;20596;-67
2022/06/26 04:22:32;;;;;;;8.70;7.30;;;19.00;79.80;;;;;;5053433;28;20043;-67
2022/06/26 04:24:57;;;;;;;8.43;7.40;;;19.00;79.80;;;;;;5051934;28;20714;-67
2022/06/26 04:27:23;;;;;;;8.05;6.20;;;19.00;79.80;;;;;;5051918;28;20071;-66
2022/06/26 04:29:48;;;;;;;8.77;6.95;;;19.00;79.70;;;;;;5050143;28;20014;-66
2022/06/26 04:32:14;;;;;;;10.40;7.85;;;19.00;79.80;;;;;;5052237;28;20127;-68
2022/06/26 04:34:39;;;;;;;8.65;7.32;;;18.90;79.80;;;;;;5050820;28;20021;-68
2022/06/26 04:37:05;;;;;;;9.43;7.60;;;18.90;79.90;;;;;;5049162;28;20032;-68
2022/06/26 04:39:31;;;;;;;9.07;7.88;;;18.80;79.90;;;;;;5043215;28;20022;-68
2022/06/26 04:41:56;;;;;;;7.70;6.32;;;18.90;79.80;;;;;;5045599;28;20029;-67
2022/06/26 04:44:22;;;;;;;8.43;6.80;;;18.90;79.60;;;;;;5050878;28;20044;-67
2022/06/26 04:46:48;;;;;;;9.13;7.38;;;18.90;79.40;;;;;;5051390;28;20025;-67
2022/06/26 04:49:14;;;;;;;9.05;6.95;;;18.90;79.30;;;;;;5044242;28;20028;-67
2022/06/26 04:51:40;;;;;;;7.15;5.57;;;19.00;79.10;;;;;;5049492;28;20071;-67
2022/06/26 04:54:08;;;;;;;10.38;7.65;;;19.00;78.80;;;;;;5051222;28;20507;-67
2022/06/26 04:56:35;;;;;;;8.75;7.03;;;19.10;78.60;;;;;;5050483;28;20039;-68
2022/06/26 04:59:01;;;;;;;7.57;6.68;;;19.30;78.00;;;;;;5053144;28;20071;-67
2022/06/26 05:01:27;;;;;;;7.00;5.78;;;19.40;77.60;;;;;;5049175;28;20510;-68
2022/06/26 05:03:53;;;;;;;8.25;6.13;;;19.50;77.90;;;;;;5048775;28;20029;-68
2022/06/26 05:06:18;;;;;;;9.15;7.47;;;19.30;77.10;;;;;;5040599;28;20026;-68
2022/06/26 05:08:44;;;;;;;8.48;7.20;;;19.20;77.40;;;;;;5042032;28;20024;-68
2022/06/26 05:11:10;;;;;;;8.52;6.90;;;19.10;77.60;;;;;;5045202;28;20013;-68
2022/06/26 05:13:35;;;;;;;8.57;6.38;;;19.10;77.80;;;;;;5049418;28;20423;-67
2022/06/26 05:16:01;;;;;;;8.55;6.75;;;19.10;77.90;;;;;;5041925;28;20026;-68
2022/06/26 05:18:27;;;;;;;8.23;6.63;;;19.00;77.90;;;;;;5047454;28;20033;-67
2022/06/26 05:20:53;;;;;;;9.48;6.68;;;19.00;78.00;;;;;;5040669;28;20033;-67
2022/06/26 05:23:19;;;;;;;8.48;7.03;;;18.90;78.10;;;;;;5039817;28;20407;-67
2022/06/26 05:25:44;;;;;;;8.98;7.30;;;18.90;78.20;;;;;;5033643;28;20025;-67
2022/06/26 05:28:10;;;;;;;8.77;7.18;;;18.90;78.30;;;;;;5032705;28;20124;-68
2022/06/26 05:30:36;;;;;;;8.30;6.55;;;18.90;78.30;;;;;;5051225;28;20384;-67
2022/06/26 05:33:02;;;;;;;9.73;7.43;;;18.90;78.20;;;;;;5052353;28;20357;-67
2022/06/26 05:35:29;;;;;;;9.32;6.80;;;18.90;78.30;;;;;;5038183;28;20048;-67
2022/06/26 05:37:54;;;;;;;13.32;10.40;;;19.00;78.10;;;;;;5045802;28;20538;-67
2022/06/26 05:40:20;;;;;;;11.65;8.32;;;18.90;77.90;;;;;;5050363;28;20060;-67
2022/06/26 05:42:46;;;;;;;9.65;7.68;;;18.80;78.10;;;;;;5048048;28;20442;-68
2022/06/26 05:45:11;;;;;;;10.40;7.70;;;18.80;78.20;;;;;;5050572;28;20033;-68
2022/06/26 05:47:37;;;;;;;7.88;6.70;;;18.80;78.20;;;;;;5040298;28;20037;-68
2022/06/26 05:50:03;;;;;;;13.18;10.57;;;18.80;78.80;;;;;;5050511;28;20024;-67
2022/06/26 05:52:29;;;;;;;9.98;7.97;;;18.90;78.20;;;;;;5039747;28;20036;-67
2022/06/26 05:54:54;;;;;;;8.88;7.63;;;18.90;78.00;;;;;;5044952;28;20022;-68
2022/06/26 05:57:20;;;;;;;8.25;6.45;;;18.90;77.90;;;;;;5038803;28;20047;-68
2022/06/26 05:59:47;;;;;;;8.30;6.22;;;19.20;77.70;;;;;;5050255;28;20380;-67
2022/06/26 06:02:12;;;;;;;7.03;6.13;;;19.30;77.10;;;;;;5049343;28;20031;-67
2022/06/26 06:04:38;;;;;;;8.32;6.60;;;19.30;76.80;;;;;;5047909;28;20404;-68
2022/06/26 06:07:04;;;;;;;8.93;6.88;;;19.30;76.80;;;;;;5050530;28;20036;-67
2022/06/26 06:09:30;;;;;;;8.52;7.60;;;19.40;76.60;;;;;;5049523;28;20430;-67
2022/06/26 06:11:55;;;;;;;8.48;6.72;;;19.40;76.20;;;;;;5040536;28;20028;-67
2022/06/26 06:14:21;;;;;;;7.30;6.40;;;19.60;76.10;;;;;;5051674;28;20047;-67
2022/06/26 06:16:46;;;;;;;11.27;7.68;;;19.80;75.60;;;;;;5048036;28;20045;-67
2022/06/26 06:19:12;;;;;;;7.38;6.35;;;20.00;75.10;;;;;;5040714;28;20035;-68
2022/06/26 06:21:38;;;;;;;7.78;6.78;;;20.20;74.60;;;;;;5032975;28;20494;-67
2022/06/26 06:24:03;;;;;;;6.45;5.65;;;20.30;74.00;;;;;;5050773;28;20020;-67
2022/06/26 06:26:29;;;;;;;9.60;6.75;;;20.50;73.90;;;;;;5051032;28;20104;-67
2022/06/26 06:28:55;;;;;;;7.60;5.68;;;20.70;73.60;;;;;;5045474;28;20013;-67
2022/06/26 06:31:21;;;;;;;6.53;5.45;;;20.80;73.30;;;;;;5040176;28;20449;-67
2022/06/26 06:33:46;;;;;;;7.95;5.88;;;20.90;73.00;;;;;;5043072;28;20025;-67
2022/06/26 06:36:12;;;;;;;7.25;5.95;;;20.90;72.60;;;;;;5044700;28;20104;-67
2022/06/26 06:38:38;;;;;;;6.68;5.15;;;21.00;72.40;;;;;;5045701;28;20702;-68
2022/06/26 06:41:03;;;;;;;7.43;6.00;;;21.10;72.10;;;;;;5048622;28;20028;-67
2022/06/26 06:43:29;;;;;;;8.55;6.18;;;21.20;71.90;;;;;;5043339;28;20089;-67
2022/06/26 06:45:54;;;;;;;6.25;5.53;;;21.30;71.20;;;;;;5046718;28;20403;-67
2022/06/26 06:48:21;;;;;;;6.60;5.65;;;21.40;71.30;;;;;;5044383;28;20021;-67
2022/06/26 06:50:47;;;;;;;8.63;6.82;;;21.50;71.00;;;;;;5035340;28;20025;-67
2022/06/26 06:53:13;;;;;;;10.23;8.95;;;21.50;70.20;;;;;;5037888;28;20024;-68
2022/06/26 06:55:38;;;;;;;8.55;6.25;;;21.50;68.70;;;;;;5046992;28;20025;-67
2022/06/26 06:58:04;;;;;;;9.27;7.40;;;21.40;69.30;;;;;;5047807;28;20384;-67
2022/06/26 07:00:30;;;;;;;6.72;6.03;;;21.30;68.20;;;;;;5042038;28;20395;-67
2022/06/26 07:03:00;;;;;;;5.93;4.53;;;21.30;68.20;;;;;;5034519;28;20024;-70
2022/06/26 07:05:26;;;;;;;6.75;4.75;;;21.30;68.30;;;;;;5040641;28;20032;-68
2022/06/26 07:07:51;;;;;;;6.50;3.95;;;21.50;68.40;;;;;;5043650;28;20025;-67
2022/06/26 07:10:17;;;;;;;4.32;3.78;;;21.60;68.10;;;;;;5041810;28;20029;-67
2022/06/26 07:12:51;;;;;;;3.42;3.13;;;21.80;67.70;;;;;;5041107;28;20083;-67
2022/06/26 07:15:17;;;;;;;6.68;3.88;;;22.00;67.30;;;;;;5044415;28;20033;-68
2022/06/26 07:17:42;;;;;;;4.10;3.00;;;22.10;66.90;;;;;;5036126;28;20029;-68
2022/06/26 07:20:09;;;;;;;4.30;3.33;;;22.20;66.60;;;;;;5050237;28;20021;-68
2022/06/26 07:22:34;;;;;;;5.03;3.50;;;22.20;66.40;;;;;;5046078;28;20511;-67
2022/06/26 07:25:00;;;;;;;3.10;2.67;;;22.30;66.40;;;;;;5041291;28;20029;-67
2022/06/26 07:27:25;;;;;;;5.60;3.55;;;22.40;66.20;;;;;;5042694;28;20024;-68
2022/06/26 07:29:51;;;;;;;4.95;3.20;;;22.50;65.80;;;;;;5047087;28;20013;-67
2022/06/26 07:32:16;;;;;;;3.60;3.20;;;22.60;65.60;;;;;;5045249;28;20031;-67
2022/06/26 07:34:42;;;;;;;4.68;3.90;;;22.70;65.30;;;;;;5040773;28;20028;-68
2022/06/26 07:37:07;;;;;;;4.45;3.75;;;22.90;65.10;;;;;;5042061;28;20029;-68
2022/06/26 07:39:33;;;;;;;4.07;3.40;;;22.90;63.80;;;;;;5042661;28;20033;-67
2022/06/26 07:41:59;;;;;;;3.85;3.00;;;22.80;63.70;;;;;;5045027;28;20032;-67
2022/06/26 07:44:24;;;;;;;4.03;2.80;;;22.80;64.20;;;;;;5035250;28;20055;-67
2022/06/26 07:46:50;;;;;;;4.05;2.65;;;22.90;63.30;;;;;;5043320;28;20034;-67
2022/06/26 07:49:16;;;;;;;4.13;2.40;;;23.00;63.10;;;;;;5049222;28;20029;-67
2022/06/26 07:51:41;;;;;;;3.33;2.30;;;23.10;62.90;;;;;;5040670;28;20032;-68
2022/06/26 07:54:07;;;;;;;3.47;2.38;;;23.20;62.50;;;;;;5046713;28;20021;-67
2022/06/26 07:56:33;;;;;;;2.80;2.10;;;23.30;62.30;;;;;;5044767;28;20030;-68
2022/06/26 07:58:59;;;;;;;3.00;2.38;;;23.40;62.40;;;;;;5041770;28;20032;-67
2022/06/26 08:01:24;;;;;;;2.88;2.00;;;23.40;61.80;;;;;;5049566;28;20379;-68
2022/06/26 08:03:50;;;;;;;3.42;2.10;;;23.60;61.80;;;;;;5046835;28;20033;-67
2022/06/26 08:06:15;;;;;;;3.45;2.00;;;23.70;60.90;;;;;;5046047;28;20386;-68
2022/06/26 08:08:41;;;;;;;2.75;1.50;;;23.80;60.50;;;;;;5035926;28;20022;-68
2022/06/26 08:11:07;;;;;;;3.03;2.25;;;23.80;60.00;;;;;;5046738;28;20049;-68
2022/06/26 08:13:32;;;;;;;3.80;2.10;;;23.70;59.50;;;;;;5042070;28;20025;-68
2022/06/26 08:15:58;;;;;;;2.42;1.70;;;23.80;59.70;;;;;;5044126;28;20048;-67
2022/06/26 08:18:23;;;;;;;3.22;1.95;;;23.80;59.60;;;;;;5049255;28;20395;-68
2022/06/26 08:20:49;;;;;;;2.17;1.65;;;23.80;59.30;;;;;;5044583;28;20032;-68
2022/06/26 08:23:14;;;;;;;4.38;1.52;;;23.90;59.30;;;;;;5038793;28;20025;-69
2022/06/26 08:25:40;;;;;;;3.05;1.75;;;24.00;59.40;;;;;;5037529;28;20037;-69
2022/06/26 08:28:06;;;;;;;5.07;2.50;;;24.10;59.30;;;;;;5042137;28;20017;-68
2022/06/26 08:30:32;;;;;;;3.22;2.00;;;24.00;59.10;;;;;;5048398;28;20044;-68
2022/06/26 08:32:58;;;;;;;3.55;1.90;;;23.90;59.00;;;;;;5049050;28;20480;-68
2022/06/26 08:35:26;;;;;;;2.28;1.77;;;23.90;59.20;;;;;;5044213;28;20071;-68
2022/06/26 08:37:52;;;;;;;2.58;1.75;;;23.80;59.20;;;;;;5049357;28;20028;-68
2022/06/26 08:40:17;;;;;;;3.53;1.90;;;23.80;59.30;;;;;;5048102;28;20032;-68
2022/06/26 08:42:47;;;;;;;2.83;1.88;;;23.80;59.20;;;;;;5049173;28;20391;-68
2022/06/26 08:45:15;;;;;;;3.22;1.80;;;23.70;59.40;;;;;;5041738;28;20029;-68
2022/06/26 08:47:42;;;;;;;2.03;1.48;;;23.60;59.40;;;;;;5035041;28;20033;-68
2022/06/26 08:50:08;;;;;;;2.35;1.50;;;23.60;59.50;;;;;;5032869;28;20025;-68
2022/06/26 08:52:34;;;;;;;2.53;1.75;;;23.50;59.30;;;;;;5042397;28;20082;-67
2022/06/26 08:55:02;;;;;;;2.40;1.48;;;23.40;59.10;;;;;;5040188;28;20021;-68
2022/06/26 08:57:28;;;;;;;3.35;1.98;;;23.30;58.80;;;;;;5045714;28;20028;-68
2022/06/26 08:59:54;;;;;;;2.47;1.58;;;23.20;58.80;;;;;;5041380;28;20029;-68
2022/06/26 09:02:19;;;;;;;2.15;1.50;;;23.20;59.00;;;;;;5041366;28;20028;-68
2022/06/26 09:04:45;;;;;;;2.55;1.90;;;23.30;59.30;;;;;;5045525;28;20025;-68
2022/06/26 09:07:10;;;;;;;4.03;2.20;;;23.30;59.00;;;;;;5039666;28;20503;-68
2022/06/26 09:09:42;;;;;;;1.92;1.40;;;23.20;58.60;;;;;;5050151;28;20032;-68
2022/06/26 09:12:07;;;;;;;5.00;1.90;;;23.20;59.20;;;;;;5055187;28;20522;-68
2022/06/26 09:14:33;;;;;;;3.85;1.90;;;23.30;58.70;;;;;;5049314;28;20033;-68
2022/06/26 09:16:59;;;;;;;2.88;1.95;;;23.20;58.60;;;;;;5040556;28;20025;-68
2022/06/26 09:19:29;;;;;;;2.72;2.00;;;23.30;58.80;;;;;;5050030;28;20029;-68
2022/06/26 09:22:18;;;;;;;3.42;2.15;;;23.20;58.60;;;;;;5054348;28;20025;-68
2022/06/26 09:25:03;;;;;;;2.92;2.17;;;23.20;59.00;;;;;;5045199;28;20041;-67
2022/06/26 09:27:38;;;;;;;2.63;1.60;;;23.30;58.80;;;;;;5039051;28;20025;-67
2022/06/26 09:30:04;;;;;;;3.42;2.00;;;23.40;59.00;;;;;;5044286;28;20021;-67
2022/06/26 09:32:31;;;;;;;3.17;1.60;;;23.40;58.10;;;;;;5040761;28;20029;-67
2022/06/26 09:34:56;;;;;;;2.78;1.33;;;23.50;58.40;;;;;;5043836;28;20029;-67
2022/06/26 09:37:23;;;;;;;3.17;2.00;;;23.60;58.30;;;;;;5039005;28;20095;-68
2022/06/26 09:39:59;;;;;;;3.17;2.00;;;23.50;57.70;;;;;;5042954;28;20705;-68
2022/06/26 09:42:24;;;;;;;3.80;2.00;;;23.40;57.80;;;;;;5042075;28;21313;-68
2022/06/26 09:44:52;;;;;;;3.65;1.58;;;23.40;57.90;;;;;;5037825;28;20025;-68
2022/06/26 09:47:22;;;;;;;3.17;1.90;;;23.40;58.30;;;;;;5038731;28;20403;-68
2022/06/26 09:49:51;;;;;;;3.78;2.50;;;23.40;58.10;;;;;;5044479;28;20028;-68
2022/06/26 09:52:17;;;;;;;4.50;1.95;;;23.40;58.00;;;;;;5042383;28;20029;-68
2022/06/26 09:54:43;;;;;;;2.17;1.95;;;23.40;58.40;;;;;;5041097;28;20106;-68
2022/06/26 09:57:09;;;;;;;3.55;2.30;;;23.40;58.60;;;;;;5044458;28;20025;-68
2022/06/26 09:59:35;;;;;;;2.35;1.65;;;23.40;58.80;;;;;;5041561;28;20029;-68
2022/06/26 10:07:32;;;;;;;2.53;1.80;;;23.40;59.30;;;;;;5041272;28;20099;-66
2022/06/26 10:09:57;;;;;;;1.30;1.02;;;23.50;59.20;;;;;;5042256;28;20426;-67
2022/06/26 10:12:23;;;;;;;2.92;2.03;;;23.50;59.80;;;;;;5041009;28;20025;-68
2022/06/26 10:14:53;;;;;;;2.33;1.80;;;23.50;59.10;;;;;;5041584;28;20100;-68
2022/06/26 10:17:21;;;;;;;2.17;1.65;;;23.50;59.00;;;;;;5040909;28;20419;-68
2022/06/26 10:19:56;;;;;;;2.65;1.50;;;23.60;59.00;;;;;;5041746;28;20079;-67
2022/06/26 10:22:22;;;;;;;3.30;1.83;;;23.70;59.10;;;;;;5041396;28;20040;-68
2022/06/26 10:24:52;;;;;;;2.00;1.70;;;23.80;58.80;;;;;;5043047;28;20029;-67
2022/06/26 10:27:23;;;;;;;2.00;1.52;;;23.80;58.40;;;;;;5044455;28;20028;-68
2022/06/26 10:29:49;;;;;;;3.42;1.95;;;23.90;58.30;;;;;;5045094;28;20017;-68
2022/06/26 10:32:22;;;;;;;2.67;1.88;;;23.80;58.00;;;;;;5044247;28;20032;-69
2022/06/26 10:34:57;;;;;;;2.60;1.88;;;23.70;57.90;;;;;;5042971;28;20025;-68
2022/06/26 10:37:23;;;;;;;3.97;2.88;;;23.70;57.70;;;;;;5042996;28;20081;-69
2022/06/26 10:39:51;;;;;;;4.07;2.60;;;23.50;57.40;;;;;;5044154;28;20446;-68
2022/06/26 10:45:18;;;;;;;7.20;2.88;;;23.30;57.70;;;;;;5041744;28;20040;-68
2022/06/26 10:47:49;;;;;;;6.27;3.20;;;23.20;57.60;;;;;;5044009;28;20071;-66
2022/06/26 10:50:32;;;;;;;3.70;2.23;;;23.10;57.50;;;;;;5041222;28;20275;-68
2022/06/26 10:53:23;;;;;;;3.75;1.92;;;23.00;57.80;;;;;;5042333;28;20305;-66
2022/06/26 10:55:56;;;;;;;4.30;2.70;;;23.10;58.10;;;;;;5040557;28;20539;-66
2022/06/26 10:58:22;;;;;;;4.28;3.33;;;23.10;58.20;;;;;;5040092;28;20033;-67
2022/06/26 11:00:47;;;;;;;4.80;2.60;;;23.00;57.70;;;;;;5043472;28;20024;-68
2022/06/26 11:03:17;;;;;;;4.50;2.30;;;22.80;58.20;;;;;;5039939;28;20025;-68
2022/06/26 11:05:53;;;;;;;4.28;2.15;;;22.90;58.60;;;;;;5042646;28;20123;-67
2022/06/26 11:08:36;;;;;;;2.67;1.80;;;23.00;58.70;;;;;;5040962;28;20557;-67
2022/06/26 11:11:14;;;;;;;3.10;1.95;;;23.30;58.40;;;;;;5040480;28;20049;-68
2022/06/26 11:13:55;;;;;;;4.32;2.20;;;23.50;58.10;;;;;;5038393;28;20021;-67
2022/06/26 11:16:38;;;;;;;2.95;2.20;;;23.60;57.80;;;;;;5041220;28;20108;-67
2022/06/26 11:19:07;;;;;;;3.92;2.35;;;23.70;57.60;;;;;;5036071;28;20420;-67
2022/06/26 11:21:33;;;;;;;6.40;4.07;;;23.70;57.20;;;;;;5041251;28;20033;-66
2022/06/26 11:24:01;;;;;;;3.97;2.47;;;23.60;56.70;;;;;;5047120;28;20089;-67
2022/06/26 11:26:26;;;;;;;5.55;2.90;;;23.40;57.20;;;;;;5039547;28;20061;-67
2022/06/26 11:28:58;;;;;;;4.13;2.08;;;23.50;56.90;;;;;;5042101;28;20522;-67
2022/06/26 11:31:30;;;;;;;7.10;2.58;;;23.40;57.40;;;;;;5043880;28;20048;-67
2022/06/26 11:34:07;;;;;;;2.53;1.80;;;23.30;57.40;;;;;;5049043;28;20029;-68
2022/06/26 11:36:32;;;;;;;5.50;2.45;;;23.40;57.80;;;;;;5047453;28;20040;-68
2022/06/26 11:38:59;;;;;;;4.32;2.63;;;23.40;57.40;;;;;;5042989;28;20020;-66
2022/06/26 11:41:25;;;;;;;3.17;1.92;;;23.30;56.40;;;;;;5045133;28;20026;-67
2022/06/26 11:43:56;;;;;;;1.65;1.50;;;23.30;56.40;;;;;;5037368;28;20032;-67
2022/06/26 11:46:23;;;;;;;5.18;2.13;;;23.30;56.10;;;;;;5039609;28;20117;-68
2022/06/26 11:48:51;;;;;;;3.88;1.60;;;23.30;54.80;;;;;;5043780;28;20128;-68
2022/06/26 11:51:18;;;;;;;2.95;1.63;;;23.20;55.10;;;;;;5042975;28;20090;-67
2022/06/26 11:53:46;;;;;;;4.88;2.35;;;23.10;55.00;;;;;;5037453;28;20083;-68
2022/06/26 11:56:22;;;;;;;4.00;1.65;;;23.00;55.10;;;;;;5043316;28;20625;-68
2022/06/26 11:58:50;;;;;;;3.05;2.10;;;23.00;55.90;;;;;;5039594;28;20036;-68
2022/06/26 12:01:16;;;;;;;4.63;2.47;;;23.10;56.20;;;;;;5040156;28;20476;-68
2022/06/26 12:03:47;;;;;;;5.25;2.92;;;23.10;56.60;;;;;;5047545;28;20025;-68
2022/06/26 12:06:33;;;;;;;3.45;2.13;;;23.10;56.90;;;;;;5042443;28;20048;-68
2022/06/26 12:09:01;;;;;;;2.83;2.17;;;22.90;57.60;;;;;;5038482;28;20041;-68
2022/06/26 12:11:26;;;;;;;4.80;2.30;;;22.90;58.50;;;;;;5038686;28;20017;-68
2022/06/26 12:13:52;;;;;;;3.33;2.10;;;22.80;58.60;;;;;;5042424;28;20155;-68
2022/06/26 12:16:18;;;;;;;3.15;2.00;;;22.70;58.80;;;;;;5041129;28;20136;-68
2022/06/26 12:18:44;;;;;;;3.70;2.10;;;22.60;59.30;;;;;;5047861;28;20513;-68
2022/06/26 12:21:18;;;;;;;2.83;1.73;;;22.50;60.00;;;;;;5048059;28;20052;-68
2022/06/26 12:23:46;;;;;;;3.42;1.83;;;22.40;60.20;;;;;;5041760;28;20094;-68
2022/06/26 12:26:15;;;;;;;3.40;1.80;;;22.40;60.20;;;;;;5042231;28;20055;-68
2022/06/26 12:28:47;;;;;;;3.63;2.20;;;22.30;60.40;;;;;;5040801;28;20017;-68
2022/06/26 12:31:14;;;;;;;4.55;2.15;;;22.30;60.50;;;;;;5040959;28;20029;-68
2022/06/26 12:33:39;;;;;;;3.40;2.10;;;22.10;61.20;;;;;;5035100;28;20028;-68
2022/06/26 12:36:05;;;;;;;4.28;2.35;;;22.00;61.60;;;;;;5044860;28;20048;-68
2022/06/26 12:38:34;;;;;;;3.72;2.35;;;22.00;62.10;;;;;;5042153;28;20030;-68
2022/06/26 12:41:04;;;;;;;2.35;1.80;;;21.90;62.40;;;;;;5046549;28;20077;-69
2022/06/26 12:43:29;;;;;;;2.65;1.83;;;21.90;62.50;;;;;;5046376;28;20415;-68
2022/06/26 12:45:55;;;;;;;3.45;2.17;;;21.90;62.30;;;;;;5045883;28;20040;-69
2022/06/26 12:48:20;;;;;;;2.88;1.80;;;21.80;62.30;;;;;;5042656;28;20586;-68
2022/06/26 12:50:46;;;;;;;2.35;1.70;;;21.70;62.70;;;;;;5052676;28;20052;-68
2022/06/26 12:53:12;;;;;;;3.38;1.70;;;21.70;62.50;;;;;;5046208;28;20035;-68
2022/06/26 12:55:38;;;;;;;3.50;2.00;;;21.80;61.80;;;;;;5044301;28;20093;-68
2022/06/26 12:58:03;;;;;;;2.50;1.83;;;21.70;61.50;;;;;;5044155;28;20036;-68